Time;durP1;ratioP1;P1;durP2;ratioP2;P2;SDS_P1;SDS_P2;PMS_P1;PMS_P2;Temp;Humidity;BMP_temperature;BMP_pressure;BME280_temperature;BME280_humidity;BME280_pressure;Samples;Min_cycle;Max_cycle;Signal;HPM_P1;HPM_P2
2024/01/26 00:00:59;;;;;;;15.17;7.10;;;8.80;98.00;;;;;;5013617;28;20460;-66
2024/01/26 00:03:26;;;;;;;16.97;6.77;;;8.70;98.00;;;;;;5013484;28;20526;-67
2024/01/26 00:05:53;;;;;;;15.63;6.97;;;8.70;98.00;;;;;;5013633;28;20460;-67
2024/01/26 00:08:20;;;;;;;15.80;6.90;;;8.70;98.00;;;;;;5013659;28;20552;-67
2024/01/26 00:10:49;;;;;;;16.50;7.07;;;8.60;98.00;;;;;;5013505;28;20820;-66
2024/01/26 00:13:16;;;;;;;17.33;6.90;;;8.50;98.00;;;;;;5013385;28;20449;-67
2024/01/26 00:15:45;;;;;;;20.77;7.13;;;8.50;98.00;;;;;;5012159;28;21016;-67
2024/01/26 00:18:13;;;;;;;17.60;7.30;;;8.40;98.00;;;;;;5013087;28;20552;-67
2024/01/26 00:20:40;;;;;;;14.20;6.40;;;8.30;98.00;;;;;;5013430;28;20458;-66
2024/01/26 00:23:07;;;;;;;15.13;6.60;;;8.40;98.00;;;;;;5013429;28;20855;-66
2024/01/26 00:25:34;;;;;;;15.53;7.00;;;8.50;98.00;;;;;;5013233;28;20460;-67
2024/01/26 00:28:04;;;;;;;15.20;6.87;;;8.50;98.00;;;;;;5013105;28;20486;-68
2024/01/26 00:30:31;;;;;;;18.30;7.63;;;8.40;98.00;;;;;;5013071;28;20687;-66
2024/01/26 00:32:59;;;;;;;17.13;7.30;;;8.30;98.00;;;;;;5013079;28;20574;-66
2024/01/26 00:35:26;;;;;;;14.47;6.90;;;8.20;98.00;;;;;;5012837;28;20447;-66
2024/01/26 00:37:54;;;;;;;22.10;8.23;;;8.20;98.00;;;;;;5012899;28;20609;-67
2024/01/26 00:40:21;;;;;;;21.83;7.80;;;8.30;98.00;;;;;;4994788;28;20542;-67
2024/01/26 00:42:49;;;;;;;25.93;8.20;;;8.20;98.00;;;;;;5012894;28;20943;-67
2024/01/26 00:45:18;;;;;;;12.77;6.90;;;8.20;98.00;;;;;;5012923;28;20455;-67
2024/01/26 00:47:45;;;;;;;17.63;7.77;;;8.20;98.00;;;;;;5012979;28;20797;-66
2024/01/26 00:50:12;;;;;;;18.73;7.47;;;8.20;98.00;;;;;;5012654;28;20574;-66
2024/01/26 00:52:39;;;;;;;21.57;8.30;;;8.20;98.00;;;;;;5012640;28;20464;-67
2024/01/26 00:55:06;;;;;;;16.70;7.30;;;8.20;98.00;;;;;;5012729;28;20941;-68
2024/01/26 00:57:34;;;;;;;13.93;7.03;;;8.20;98.00;;;;;;5012937;28;20472;-66
2024/01/26 01:00:04;;;;;;;18.07;7.50;;;8.20;98.00;;;;;;5010977;28;20463;-67
2024/01/26 01:02:34;;;;;;;20.20;7.70;;;8.20;98.00;;;;;;5012691;28;20892;-67
2024/01/26 01:05:01;;;;;;;16.20;7.83;;;8.30;98.00;;;;;;5011464;28;20462;-67
2024/01/26 01:07:28;;;;;;;13.60;7.00;;;8.30;98.00;;;;;;5012953;28;20476;-66
2024/01/26 01:09:56;;;;;;;14.80;7.03;;;8.30;98.00;;;;;;5012629;28;20462;-66
2024/01/26 01:12:24;;;;;;;13.93;6.30;;;8.30;98.00;;;;;;5012657;28;20513;-67
2024/01/26 01:14:51;;;;;;;15.40;6.40;;;8.40;98.00;;;;;;5012446;28;20538;-67
2024/01/26 01:17:18;;;;;;;15.37;6.20;;;8.40;98.00;;;;;;5012626;28;20467;-66
2024/01/26 01:19:47;;;;;;;13.70;6.73;;;8.40;98.00;;;;;;5012105;28;20462;-67
2024/01/26 01:22:14;;;;;;;13.23;6.07;;;8.40;98.00;;;;;;5011981;28;20456;-66
2024/01/26 01:24:41;;;;;;;11.33;4.73;;;8.40;98.00;;;;;;5012568;28;20848;-67
2024/01/26 01:27:08;;;;;;;10.33;5.37;;;8.50;98.00;;;;;;5012391;28;20514;-67
2024/01/26 01:29:35;;;;;;;9.90;5.07;;;8.50;98.00;;;;;;5010875;28;20455;-67
2024/01/26 01:32:02;;;;;;;11.67;5.13;;;8.50;98.00;;;;;;5010756;28;20841;-67
2024/01/26 01:34:30;;;;;;;9.00;5.17;;;8.60;98.00;;;;;;5011985;28;20456;-67
2024/01/26 01:36:58;;;;;;;10.70;4.60;;;8.60;98.00;;;;;;5010733;28;20963;-67
2024/01/26 01:39:25;;;;;;;9.10;4.87;;;8.60;98.00;;;;;;5012229;28;20484;-67
2024/01/26 01:41:52;;;;;;;9.07;4.50;;;8.70;98.00;;;;;;5011980;28;20460;-67
2024/01/26 01:44:19;;;;;;;9.53;4.50;;;8.70;98.00;;;;;;5011761;28;20937;-67
2024/01/26 01:46:46;;;;;;;8.37;4.40;;;8.70;98.00;;;;;;5012061;28;20464;-67
2024/01/26 01:49:14;;;;;;;7.83;4.47;;;8.70;98.00;;;;;;5011923;28;20469;-66
2024/01/26 01:51:46;;;;;;;7.33;4.40;;;8.70;98.00;;;;;;5011813;28;20841;-66
2024/01/26 01:54:16;;;;;;;9.43;4.23;;;8.70;98.00;;;;;;5010636;28;20459;-67
2024/01/26 01:56:45;;;;;;;10.07;4.27;;;8.80;98.00;;;;;;5012317;28;20474;-67
2024/01/26 01:59:13;;;;;;;8.30;3.93;;;8.80;98.00;;;;;;5010520;28;20452;-67
2024/01/26 02:01:40;;;;;;;7.50;3.73;;;8.80;98.00;;;;;;5011924;28;20535;-67
2024/01/26 02:04:07;;;;;;;7.17;3.80;;;8.90;98.00;;;;;;5011827;28;20458;-68
2024/01/26 02:06:34;;;;;;;5.90;3.60;;;8.90;98.00;;;;;;5011845;28;20459;-66
2024/01/26 02:09:01;;;;;;;8.10;3.70;;;8.90;98.00;;;;;;5010558;28;20451;-67
2024/01/26 02:11:30;;;;;;;6.00;3.50;;;8.90;98.00;;;;;;5012110;28;20483;-66
2024/01/26 02:14:00;;;;;;;6.53;3.40;;;8.90;98.00;;;;;;5015556;28;20459;-67
2024/01/26 02:16:28;;;;;;;6.37;3.60;;;8.90;98.00;;;;;;5015847;28;20518;-67
2024/01/26 02:18:56;;;;;;;4.50;2.80;;;8.90;98.00;;;;;;5015697;28;20463;-66
2024/01/26 02:21:23;;;;;;;6.50;3.30;;;8.90;98.00;;;;;;5015589;28;20452;-66
2024/01/26 02:23:52;;;;;;;4.37;2.97;;;9.00;98.00;;;;;;5015676;28;20459;-66
2024/01/26 02:26:19;;;;;;;5.50;2.70;;;8.90;98.00;;;;;;5015585;28;20870;-67
2024/01/26 02:28:46;;;;;;;7.80;3.30;;;9.00;98.00;;;;;;5015256;28;20462;-67
2024/01/26 02:31:13;;;;;;;4.60;2.73;;;9.10;98.00;;;;;;5015331;28;20479;-67
2024/01/26 02:33:40;;;;;;;7.83;3.33;;;9.10;98.00;;;;;;5015518;28;20455;-68
2024/01/26 02:36:08;;;;;;;5.63;3.07;;;9.10;98.00;;;;;;5015421;28;20454;-66
2024/01/26 02:38:35;;;;;;;7.33;3.70;;;9.10;98.00;;;;;;5015174;28;20491;-66
2024/01/26 02:41:04;;;;;;;6.97;3.80;;;9.20;98.00;;;;;;5015172;28;20470;-66
2024/01/26 02:43:33;;;;;;;7.90;4.00;;;9.20;98.00;;;;;;5015112;28;20459;-67
2024/01/26 02:46:00;;;;;;;9.00;3.50;;;9.20;98.00;;;;;;5013872;28;20465;-66
2024/01/26 02:48:27;;;;;;;8.00;3.80;;;9.10;98.00;;;;;;5015166;28;20866;-66
2024/01/26 02:50:54;;;;;;;5.47;3.33;;;9.00;98.00;;;;;;5013648;28;20479;-67
2024/01/26 02:53:22;;;;;;;11.00;3.23;;;9.00;98.00;;;;;;5015002;28;20463;-66
2024/01/26 02:55:49;;;;;;;5.67;3.30;;;9.00;98.00;;;;;;5014959;28;20452;-67
2024/01/26 02:58:17;;;;;;;5.53;3.10;;;8.90;98.00;;;;;;5015092;28;20930;-67
2024/01/26 03:00:44;;;;;;;4.50;2.90;;;8.90;98.00;;;;;;5014991;28;20457;-67
2024/01/26 03:03:11;;;;;;;6.57;3.60;;;8.90;98.00;;;;;;5014326;28;20510;-67
2024/01/26 03:05:38;;;;;;;7.17;3.80;;;9.00;98.00;;;;;;5014635;28;20850;-67
2024/01/26 03:08:06;;;;;;;8.50;3.57;;;8.90;98.00;;;;;;5014616;28;20831;-66
2024/01/26 03:10:33;;;;;;;6.87;3.37;;;8.90;98.00;;;;;;5014428;28;20471;-66
2024/01/26 03:13:00;;;;;;;8.77;4.40;;;8.90;98.00;;;;;;5014562;28;20487;-67
2024/01/26 03:15:29;;;;;;;7.03;4.20;;;9.00;98.00;;;;;;5014025;28;20460;-67
2024/01/26 03:17:56;;;;;;;11.00;4.30;;;9.10;98.00;;;;;;5014216;28;20461;-67
2024/01/26 03:20:24;;;;;;;7.53;3.67;;;9.00;98.00;;;;;;5013085;28;20464;-66
2024/01/26 03:22:51;;;;;;;7.90;3.60;;;9.00;98.00;;;;;;5014070;28;20953;-68
2024/01/26 03:25:18;;;;;;;8.10;3.73;;;9.10;98.00;;;;;;5013822;28;20971;-67
2024/01/26 03:27:45;;;;;;;5.13;3.00;;;9.00;98.00;;;;;;5013549;28;20459;-67
2024/01/26 03:30:13;;;;;;;4.40;2.80;;;9.00;98.00;;;;;;5012918;28;20506;-67
2024/01/26 03:32:41;;;;;;;5.30;2.80;;;9.00;98.00;;;;;;5014021;28;20488;-66
2024/01/26 03:35:09;;;;;;;4.00;2.47;;;8.90;98.00;;;;;;5013888;28;20448;-67
2024/01/26 03:37:39;;;;;;;3.47;2.30;;;8.90;98.00;;;;;;5014060;28;20966;-66
2024/01/26 03:40:07;;;;;;;3.73;2.43;;;8.90;98.00;;;;;;5014095;28;20490;-67
2024/01/26 03:42:35;;;;;;;4.40;2.70;;;9.10;98.00;;;;;;5013860;28;20949;-67
2024/01/26 03:45:02;;;;;;;2.30;2.00;;;9.20;98.00;;;;;;5013858;28;20981;-66
2024/01/26 03:47:29;;;;;;;3.70;2.20;;;9.20;98.00;;;;;;5013880;28;21023;-67
2024/01/26 03:49:58;;;;;;;3.77;2.17;;;9.30;98.00;;;;;;5013732;28;20460;-67
2024/01/26 03:52:25;;;;;;;3.03;2.20;;;9.40;98.00;;;;;;5012298;28;20491;-66
2024/01/26 03:54:53;;;;;;;2.43;1.97;;;9.50;98.00;;;;;;5013721;28;20459;-67
2024/01/26 03:57:20;;;;;;;2.37;2.10;;;9.50;98.00;;;;;;5013434;28;20520;-66
2024/01/26 03:59:47;;;;;;;3.13;2.40;;;9.50;98.00;;;;;;5013640;28;20463;-67
2024/01/26 04:02:17;;;;;;;2.40;2.10;;;9.50;98.00;;;;;;4996533;28;20460;-66
2024/01/26 04:04:44;;;;;;;3.30;2.50;;;9.60;98.00;;;;;;5013597;28;20450;-66
2024/01/26 04:07:13;;;;;;;3.00;2.17;;;9.60;98.00;;;;;;4996049;28;20479;-66
2024/01/26 04:09:40;;;;;;;2.57;1.93;;;9.60;98.00;;;;;;5013507;28;20450;-66
2024/01/26 04:12:08;;;;;;;5.40;2.70;;;9.70;98.00;;;;;;5013393;28;20845;-67
2024/01/26 04:14:35;;;;;;;2.03;1.80;;;9.70;98.00;;;;;;5013502;28;20498;-67
2024/01/26 04:17:02;;;;;;;2.23;1.70;;;9.70;98.00;;;;;;5013592;28;20452;-66
2024/01/26 04:19:29;;;;;;;2.50;1.80;;;9.70;98.00;;;;;;5013364;28;20454;-66
2024/01/26 04:21:56;;;;;;;1.80;1.67;;;9.70;98.00;;;;;;5013444;28;20459;-67
2024/01/26 04:24:24;;;;;;;1.60;1.50;;;9.70;98.00;;;;;;5013249;28;20456;-66
2024/01/26 04:26:55;;;;;;;1.63;1.60;;;9.80;98.00;;;;;;5013340;28;20460;-66
2024/01/26 04:29:22;;;;;;;2.20;1.70;;;9.80;98.00;;;;;;5011932;28;20461;-67
2024/01/26 04:31:49;;;;;;;2.10;1.60;;;9.90;98.00;;;;;;5013317;28;20487;-67
2024/01/26 04:34:16;;;;;;;1.93;1.50;;;9.80;98.00;;;;;;5013106;28;21112;-68
2024/01/26 04:36:47;;;;;;;2.97;1.73;;;9.90;98.00;;;;;;5012304;28;20452;-66
2024/01/26 04:39:16;;;;;;;1.73;1.50;;;9.90;98.00;;;;;;5013007;28;20522;-67
2024/01/26 04:41:44;;;;;;;2.50;1.50;;;9.90;98.00;;;;;;5012152;28;20457;-66
2024/01/26 04:44:12;;;;;;;1.73;1.50;;;10.00;98.00;;;;;;5013059;28;20458;-67
2024/01/26 04:46:39;;;;;;;2.20;1.60;;;9.90;98.00;;;;;;5013157;28;20459;-66
2024/01/26 04:49:07;;;;;;;1.53;1.37;;;10.00;98.00;;;;;;5013006;28;20889;-67
2024/01/26 04:51:38;;;;;;;1.80;1.60;;;10.00;98.00;;;;;;5013047;28;21014;-67
2024/01/26 04:54:05;;;;;;;2.37;1.63;;;10.10;98.00;;;;;;5012834;28;20485;-67
2024/01/26 04:56:32;;;;;;;2.77;1.80;;;10.10;98.00;;;;;;5012892;28;20455;-68
2024/01/26 04:59:01;;;;;;;1.70;1.47;;;10.10;98.00;;;;;;5010645;28;20468;-66
2024/01/26 05:01:28;;;;;;;2.93;1.63;;;10.00;98.00;;;;;;5012592;28;20458;-67
2024/01/26 05:03:55;;;;;;;1.83;1.60;;;10.10;98.00;;;;;;5011048;28;20452;-66
2024/01/26 05:06:23;;;;;;;2.03;1.60;;;10.20;98.00;;;;;;5012505;28;20448;-67
2024/01/26 05:08:51;;;;;;;1.50;1.40;;;10.20;98.00;;;;;;5012763;28;20463;-66
2024/01/26 05:11:18;;;;;;;2.40;1.57;;;10.20;98.00;;;;;;5012313;28;20463;-67
2024/01/26 05:13:46;;;;;;;1.73;1.50;;;10.30;98.00;;;;;;5012395;28;20541;-67
2024/01/26 05:16:14;;;;;;;1.60;1.40;;;10.20;98.00;;;;;;5012357;28;20961;-67
2024/01/26 05:18:42;;;;;;;3.17;1.90;;;10.20;98.00;;;;;;5012294;28;20463;-66
2024/01/26 05:21:10;;;;;;;1.30;1.20;;;10.20;98.00;;;;;;5011744;28;20449;-66
2024/01/26 05:23:37;;;;;;;2.10;1.50;;;10.20;98.00;;;;;;5011758;28;20459;-66
2024/01/26 05:26:04;;;;;;;2.10;1.40;;;10.20;98.00;;;;;;5011804;28;20456;-67
2024/01/26 05:28:31;;;;;;;1.70;1.60;;;10.30;98.00;;;;;;5012079;28;20510;-67
2024/01/26 05:30:58;;;;;;;1.97;1.60;;;10.20;98.00;;;;;;5012145;28;20976;-67
2024/01/26 05:33:27;;;;;;;1.70;1.40;;;10.30;98.00;;;;;;5011071;28;20483;-66
2024/01/26 05:35:54;;;;;;;1.90;1.40;;;10.30;98.00;;;;;;5011796;28;20965;-66
2024/01/26 05:38:21;;;;;;;2.13;1.37;;;10.30;98.00;;;;;;5012256;28;20455;-66
2024/01/26 05:40:50;;;;;;;1.50;1.30;;;10.20;98.00;;;;;;5012331;28;20477;-67
2024/01/26 05:43:17;;;;;;;1.87;1.50;;;10.20;98.00;;;;;;5012178;28;20460;-66
2024/01/26 05:45:44;;;;;;;2.00;1.50;;;10.30;98.00;;;;;;5012320;28;20459;-66
2024/01/26 05:48:12;;;;;;;2.23;1.60;;;10.30;98.00;;;;;;5015316;28;20464;-66
2024/01/26 05:50:41;;;;;;;2.87;1.50;;;10.20;98.00;;;;;;5014814;28;20447;-67
2024/01/26 05:53:08;;;;;;;1.53;1.40;;;10.20;98.00;;;;;;5016073;28;20905;-67
2024/01/26 05:55:35;;;;;;;2.27;1.40;;;10.10;98.00;;;;;;5014421;28;20992;-67
2024/01/26 05:58:03;;;;;;;1.80;1.60;;;10.10;98.00;;;;;;5016110;28;20510;-66
2024/01/26 06:00:30;;;;;;;2.20;1.57;;;10.20;98.00;;;;;;5014633;28;20468;-66
2024/01/26 06:02:57;;;;;;;2.20;1.50;;;10.20;98.00;;;;;;5015952;28;20462;-68
2024/01/26 06:05:24;;;;;;;1.60;1.50;;;10.10;98.00;;;;;;5015838;28;20467;-66
2024/01/26 06:07:52;;;;;;;2.47;1.60;;;10.10;98.00;;;;;;5015963;28;20463;-67
2024/01/26 06:10:19;;;;;;;2.07;1.40;;;10.10;98.00;;;;;;5015601;28;20455;-66
2024/01/26 06:12:46;;;;;;;2.53;1.50;;;10.10;98.00;;;;;;5015132;28;20475;-66
2024/01/26 06:15:15;;;;;;;3.53;1.60;;;10.10;98.00;;;;;;5015571;28;20462;-67
2024/01/26 06:17:42;;;;;;;2.07;1.60;;;10.10;98.00;;;;;;5015790;28;20458;-66
2024/01/26 06:20:12;;;;;;;1.70;1.40;;;10.10;98.00;;;;;;5014475;28;20466;-67
2024/01/26 06:22:39;;;;;;;1.60;1.60;;;10.00;98.00;;;;;;5015723;28;20457;-67
2024/01/26 06:25:08;;;;;;;1.93;1.50;;;10.00;98.00;;;;;;5014227;28;20451;-67
2024/01/26 06:27:35;;;;;;;2.00;1.60;;;10.00;98.00;;;;;;5015570;28;20816;-67
2024/01/26 06:30:02;;;;;;;2.37;1.63;;;10.00;98.00;;;;;;5014268;28;20451;-68
2024/01/26 06:32:29;;;;;;;2.87;1.60;;;10.00;98.00;;;;;;5015584;28;20989;-66
2024/01/26 06:34:56;;;;;;;1.80;1.53;;;9.90;98.00;;;;;;5014376;28;20456;-68
2024/01/26 06:37:26;;;;;;;2.07;1.60;;;9.90;98.00;;;;;;5015069;28;20462;-67
2024/01/26 06:39:55;;;;;;;2.10;1.70;;;9.90;98.00;;;;;;5015691;28;20540;-66
2024/01/26 06:42:25;;;;;;;2.17;1.60;;;9.90;98.00;;;;;;5014500;28;20451;-67
2024/01/26 06:44:53;;;;;;;2.00;1.77;;;9.90;98.00;;;;;;5015298;28;20482;-66
2024/01/26 06:47:20;;;;;;;2.17;1.70;;;9.80;98.00;;;;;;5015239;28;20530;-67
2024/01/26 06:49:48;;;;;;;1.80;1.60;;;9.90;98.00;;;;;;5015029;28;20999;-66
2024/01/26 06:52:15;;;;;;;2.53;1.80;;;9.90;98.00;;;;;;5014150;28;20494;-66
2024/01/26 06:54:42;;;;;;;1.80;1.60;;;9.80;98.00;;;;;;5014732;28;20459;-66
2024/01/26 06:57:09;;;;;;;2.50;1.53;;;9.90;98.00;;;;;;5014900;28;20865;-66
2024/01/26 06:59:47;;;;;;;2.07;1.60;;;9.90;98.00;;;;;;5013752;28;20467;-67
2024/01/26 07:02:14;;;;;;;2.87;1.90;;;9.90;98.00;;;;;;5014776;28;20451;-62
2024/01/26 07:04:41;;;;;;;2.73;1.90;;;9.90;98.00;;;;;;4997070;28;20449;-62
2024/01/26 07:07:08;;;;;;;2.60;1.83;;;10.00;98.00;;;;;;5014671;28;20478;-62
2024/01/26 07:09:35;;;;;;;2.73;1.70;;;10.00;98.00;;;;;;5014587;28;20458;-62
2024/01/26 07:12:03;;;;;;;2.13;1.60;;;9.90;98.00;;;;;;5014514;28;20484;-62
2024/01/26 07:14:30;;;;;;;2.17;1.70;;;9.90;98.00;;;;;;5014035;28;20826;-63
2024/01/26 07:16:59;;;;;;;2.73;1.90;;;9.90;98.00;;;;;;5014205;28;20458;-62
2024/01/26 07:19:26;;;;;;;2.00;1.60;;;10.00;98.00;;;;;;5014324;28;20874;-63
2024/01/26 07:21:54;;;;;;;2.23;1.70;;;10.10;98.00;;;;;;5013195;28;20474;-63
2024/01/26 07:24:21;;;;;;;2.47;1.83;;;10.20;98.00;;;;;;5014228;28;20541;-63
2024/01/26 07:26:48;;;;;;;1.83;1.67;;;10.20;98.00;;;;;;5012713;28;20460;-62
2024/01/26 07:29:15;;;;;;;1.80;1.70;;;10.20;98.00;;;;;;5014227;28;20949;-63
2024/01/26 07:31:44;;;;;;;1.60;1.60;;;10.20;98.00;;;;;;5014263;28;20470;-62
2024/01/26 07:34:16;;;;;;;1.70;1.67;;;10.20;98.00;;;;;;5013967;28;20451;-63
2024/01/26 07:36:43;;;;;;;2.77;1.80;;;10.20;98.00;;;;;;5013549;28;20468;-63
2024/01/26 07:39:11;;;;;;;2.13;1.60;;;10.20;98.00;;;;;;5012238;28;20451;-62
2024/01/26 07:41:38;;;;;;;2.00;1.50;;;10.20;98.00;;;;;;5013633;28;20466;-62
2024/01/26 07:44:07;;;;;;;2.57;1.60;;;10.20;98.00;;;;;;5014065;28;20478;-62
2024/01/26 07:46:34;;;;;;;2.50;1.80;;;10.30;98.00;;;;;;5014170;28;20447;-62
2024/01/26 07:49:01;;;;;;;2.57;1.60;;;10.30;98.00;;;;;;5013874;28;20450;-62
2024/01/26 07:51:30;;;;;;;1.90;1.60;;;10.30;98.00;;;;;;5013834;28;21345;-62
2024/01/26 07:53:57;;;;;;;2.37;1.67;;;10.30;98.00;;;;;;5013115;28;20494;-62
2024/01/26 07:56:25;;;;;;;2.00;1.67;;;10.30;98.00;;;;;;5012902;28;20455;-62
2024/01/26 07:58:52;;;;;;;2.60;1.80;;;10.40;98.00;;;;;;5012414;28;20463;-61
2024/01/26 08:01:19;;;;;;;1.70;1.40;;;10.50;98.00;;;;;;5013684;28;20460;-62
2024/01/26 08:03:46;;;;;;;2.33;1.50;;;10.50;98.00;;;;;;5013672;28;20511;-62
2024/01/26 08:06:13;;;;;;;2.27;1.50;;;10.60;98.00;;;;;;5013637;28;20453;-62
2024/01/26 08:08:41;;;;;;;2.40;1.60;;;10.60;98.00;;;;;;5013740;28;20459;-62
2024/01/26 08:11:09;;;;;;;1.90;1.60;;;10.60;98.00;;;;;;5013340;28;20455;-62
2024/01/26 08:13:36;;;;;;;1.83;1.47;;;10.70;98.00;;;;;;5013054;28;20554;-62
2024/01/26 08:16:03;;;;;;;1.73;1.50;;;10.80;98.00;;;;;;5013354;28;20455;-62
2024/01/26 08:18:33;;;;;;;1.70;1.57;;;10.90;98.00;;;;;;5013643;28;20468;-62
2024/01/26 08:21:00;;;;;;;8.43;1.50;;;11.00;98.00;;;;;;5013370;28;20479;-62
2024/01/26 08:23:27;;;;;;;1.90;1.50;;;11.00;98.00;;;;;;5013576;28;20983;-62
2024/01/26 08:25:55;;;;;;;1.70;1.40;;;11.10;98.00;;;;;;5013120;28;20606;-62
2024/01/26 08:28:22;;;;;;;2.30;1.73;;;11.10;98.00;;;;;;5013229;28;20933;-62
2024/01/26 08:30:50;;;;;;;1.63;1.50;;;11.20;98.00;;;;;;5013315;28;20448;-62
2024/01/26 08:33:17;;;;;;;1.40;1.40;;;11.30;98.00;;;;;;5012006;28;20805;-62
2024/01/26 08:35:44;;;;;;;1.90;1.50;;;11.30;98.00;;;;;;5012753;28;20455;-62
2024/01/26 08:38:11;;;;;;;2.23;1.60;;;11.30;98.00;;;;;;5011361;28;20466;-62
2024/01/26 08:40:38;;;;;;;1.90;1.70;;;11.30;98.00;;;;;;5012246;28;20473;-62
2024/01/26 08:43:08;;;;;;;2.47;1.60;;;11.30;98.00;;;;;;5012508;28;20836;-62
2024/01/26 08:45:35;;;;;;;1.87;1.50;;;11.40;98.00;;;;;;5012914;28;20465;-62
2024/01/26 08:48:04;;;;;;;2.00;1.57;;;11.40;98.00;;;;;;5012114;28;20456;-62
2024/01/26 08:50:31;;;;;;;2.00;1.60;;;11.30;98.00;;;;;;5012299;28;20948;-62
2024/01/26 08:52:58;;;;;;;2.00;1.60;;;11.30;98.00;;;;;;5012377;28;20484;-62
2024/01/26 08:55:25;;;;;;;2.33;1.70;;;11.40;98.00;;;;;;5012537;28;20965;-62
2024/01/26 08:57:53;;;;;;;1.87;1.50;;;11.40;98.00;;;;;;5012638;28;20459;-62
2024/01/26 09:00:22;;;;;;;2.00;1.57;;;11.40;98.00;;;;;;5012282;28;20468;-62
2024/01/26 09:02:49;;;;;;;1.97;1.60;;;11.50;98.00;;;;;;5012444;28;20465;-61
2024/01/26 09:05:16;;;;;;;2.00;1.67;;;11.50;98.00;;;;;;5012365;28;20457;-62
2024/01/26 09:07:43;;;;;;;1.93;1.60;;;11.50;98.00;;;;;;5012433;28;20840;-62
2024/01/26 09:10:11;;;;;;;2.50;1.70;;;11.60;98.00;;;;;;5012204;28;20451;-62
2024/01/26 09:12:38;;;;;;;2.50;1.80;;;11.70;98.00;;;;;;5011012;28;20909;-62
2024/01/26 09:15:06;;;;;;;2.40;1.70;;;11.70;98.00;;;;;;5012192;28;20459;-62
2024/01/26 09:17:36;;;;;;;2.40;1.70;;;11.70;98.00;;;;;;5010841;28;20454;-62
2024/01/26 09:20:06;;;;;;;2.10;1.70;;;11.70;98.00;;;;;;5011776;28;20449;-62
2024/01/26 09:22:33;;;;;;;1.60;1.50;;;11.80;98.00;;;;;;5011676;28;20454;-62
2024/01/26 09:25:02;;;;;;;4.00;1.80;;;11.80;98.00;;;;;;5011902;28;20488;-62
2024/01/26 09:27:29;;;;;;;1.83;1.60;;;11.90;98.00;;;;;;5012110;28;20506;-62
2024/01/26 09:29:58;;;;;;;4.13;1.60;;;11.90;98.00;;;;;;5011832;28;20450;-62
2024/01/26 09:32:25;;;;;;;2.47;1.60;;;11.90;98.00;;;;;;5012024;28;20505;-64
2024/01/26 09:34:53;;;;;;;2.23;1.60;;;12.00;98.00;;;;;;5011983;28;21107;-61
2024/01/26 09:37:21;;;;;;;1.67;1.57;;;12.10;98.00;;;;;;5012159;28;20478;-61
2024/01/26 09:39:48;;;;;;;3.13;1.87;;;12.20;98.00;;;;;;5010776;28;20491;-61
2024/01/26 09:42:15;;;;;;;2.63;1.87;;;12.20;98.00;;;;;;5012018;28;20452;-61
2024/01/26 09:44:42;;;;;;;1.90;1.63;;;12.20;98.00;;;;;;5010413;28;20510;-61
2024/01/26 09:47:14;;;;;;;3.20;1.70;;;12.30;98.00;;;;;;5011909;28;20461;-62
2024/01/26 09:49:45;;;;;;;2.50;1.80;;;12.20;98.00;;;;;;5011683;28;20465;-62
2024/01/26 09:52:14;;;;;;;2.17;1.70;;;12.40;98.00;;;;;;5010459;28;20471;-62
2024/01/26 09:54:43;;;;;;;3.30;2.07;;;12.30;98.00;;;;;;5010430;28;20490;-62
2024/01/26 09:57:12;;;;;;;2.70;1.93;;;12.20;98.00;;;;;;5011941;28;20855;-62
2024/01/26 09:59:39;;;;;;;2.80;1.90;;;12.20;98.00;;;;;;5010745;28;20466;-62
2024/01/26 10:02:07;;;;;;;3.20;1.80;;;12.20;98.00;;;;;;5012028;28;20456;-62
2024/01/26 10:04:35;;;;;;;5.50;2.07;;;12.30;98.00;;;;;;5011961;28;20459;-62
2024/01/26 10:07:02;;;;;;;2.33;1.70;;;12.30;98.00;;;;;;5011920;28;20963;-62
2024/01/26 10:09:30;;;;;;;4.13;1.90;;;12.40;98.00;;;;;;5011904;28;20958;-62
2024/01/26 10:11:57;;;;;;;2.30;1.80;;;12.40;98.00;;;;;;5011664;28;20948;-62
2024/01/26 10:14:24;;;;;;;2.50;1.80;;;12.30;98.00;;;;;;5011410;28;20493;-62
2024/01/26 10:16:56;;;;;;;2.20;1.70;;;12.20;98.00;;;;;;5011446;28;20470;-62
2024/01/26 10:19:25;;;;;;;3.77;2.10;;;12.10;98.00;;;;;;5011504;28;20459;-62
2024/01/26 10:21:52;;;;;;;3.23;1.77;;;12.10;98.00;;;;;;5010708;28;20568;-62
2024/01/26 10:24:23;;;;;;;2.43;1.90;;;12.10;98.00;;;;;;5011466;28;20490;-62
2024/01/26 10:26:52;;;;;;;2.50;1.80;;;12.10;98.00;;;;;;5011724;28;20456;-62
2024/01/26 10:29:20;;;;;;;2.00;1.70;;;12.00;98.00;;;;;;5011450;28;20462;-61
2024/01/26 10:31:47;;;;;;;2.70;2.00;;;12.00;98.00;;;;;;4994348;28;20448;-63
2024/01/26 10:34:17;;;;;;;3.40;1.83;;;12.10;98.00;;;;;;5014068;28;20487;-62
2024/01/26 10:36:47;;;;;;;3.30;2.10;;;12.10;98.00;;;;;;5013985;28;20457;-63
2024/01/26 10:39:22;;;;;;;2.90;1.80;;;12.20;98.00;;;;;;5015054;28;20454;-62
2024/01/26 10:41:53;;;;;;;2.20;2.00;;;12.10;98.00;;;;;;5013993;28;20542;-62
2024/01/26 10:44:23;;;;;;;2.93;1.93;;;12.00;98.00;;;;;;5014176;28;20492;-62
2024/01/26 10:46:53;;;;;;;3.20;2.07;;;12.00;98.00;;;;;;5013427;28;20537;-62
2024/01/26 10:49:22;;;;;;;5.00;2.10;;;12.00;98.00;;;;;;5013387;28;20487;-62
2024/01/26 10:51:51;;;;;;;2.47;2.00;;;11.90;98.00;;;;;;5014661;28;20461;-62
2024/01/26 10:54:20;;;;;;;2.50;1.90;;;12.00;98.00;;;;;;5014067;28;21051;-62
2024/01/26 10:56:47;;;;;;;4.40;2.20;;;12.00;98.00;;;;;;5014118;28;20612;-62
2024/01/26 10:59:17;;;;;;;2.47;1.80;;;12.00;98.00;;;;;;5014026;28;20960;-62
2024/01/26 11:01:45;;;;;;;2.33;2.00;;;12.00;98.00;;;;;;5014755;28;20458;-62
2024/01/26 11:04:13;;;;;;;3.00;2.20;;;11.90;98.00;;;;;;5014592;28;20475;-62
2024/01/26 11:06:41;;;;;;;2.60;1.93;;;11.80;98.00;;;;;;5014525;28;20451;-62
2024/01/26 11:09:08;;;;;;;2.50;2.10;;;11.90;98.00;;;;;;5014077;28;20475;-62
2024/01/26 11:11:38;;;;;;;3.97;2.00;;;11.90;98.00;;;;;;5014564;28;20459;-62
2024/01/26 11:14:05;;;;;;;2.93;2.20;;;11.90;98.00;;;;;;5013782;28;20496;-62
2024/01/26 11:16:34;;;;;;;2.50;2.10;;;12.00;98.00;;;;;;5013790;28;20453;-62
2024/01/26 11:19:02;;;;;;;2.80;2.00;;;12.00;98.00;;;;;;5014152;28;20455;-62
2024/01/26 11:21:40;;;;;;;3.20;2.30;;;12.00;98.00;;;;;;5014354;28;20459;-62
2024/01/26 11:24:16;;;;;;;5.17;2.00;;;12.10;98.00;;;;;;5014069;28;20456;-62
2024/01/26 11:26:43;;;;;;;2.37;2.03;;;12.10;98.00;;;;;;5014020;28;21006;-62
2024/01/26 11:29:14;;;;;;;2.30;1.67;;;12.10;98.00;;;;;;5014185;28;20470;-62
2024/01/26 11:31:43;;;;;;;2.50;1.90;;;12.10;98.00;;;;;;5014120;28;20460;-62
2024/01/26 11:34:19;;;;;;;2.80;1.90;;;12.10;98.00;;;;;;5014038;28;20496;-62
2024/01/26 11:36:47;;;;;;;3.20;2.30;;;12.10;98.00;;;;;;5013975;28;20514;-62
2024/01/26 11:39:16;;;;;;;3.10;2.10;;;12.20;98.00;;;;;;5013937;28;20572;-62
2024/01/26 11:41:45;;;;;;;3.90;2.37;;;12.10;98.00;;;;;;5013958;28;20546;-62
2024/01/26 11:44:21;;;;;;;2.87;1.90;;;12.10;98.00;;;;;;5013133;28;20504;-62
2024/01/26 11:46:50;;;;;;;3.57;2.30;;;12.00;98.00;;;;;;5013889;28;20455;-62
2024/01/26 11:49:20;;;;;;;2.57;1.90;;;11.90;98.00;;;;;;5013630;28;20954;-62
2024/01/26 11:51:47;;;;;;;2.90;2.30;;;11.90;98.00;;;;;;5012565;28;20469;-62
2024/01/26 11:54:24;;;;;;;4.60;2.30;;;11.90;98.00;;;;;;5013756;28;20489;-62
2024/01/26 11:56:52;;;;;;;3.27;2.00;;;11.80;98.00;;;;;;5014171;28;20885;-62
2024/01/26 11:59:19;;;;;;;3.10;2.13;;;11.80;98.00;;;;;;5013630;28;20936;-62
2024/01/26 12:01:46;;;;;;;4.00;2.20;;;11.70;98.00;;;;;;5013821;28;20970;-62
2024/01/26 12:04:17;;;;;;;3.50;1.80;;;11.70;98.00;;;;;;5013866;28;20466;-62
2024/01/26 12:06:44;;;;;;;3.10;2.03;;;11.80;98.00;;;;;;5014157;28;20826;-62
2024/01/26 12:09:11;;;;;;;2.57;1.90;;;11.80;98.00;;;;;;5013722;28;20462;-62
2024/01/26 12:11:39;;;;;;;4.17;2.00;;;11.80;98.00;;;;;;5013731;28;20451;-62
2024/01/26 12:14:06;;;;;;;2.70;1.90;;;11.80;98.00;;;;;;5013162;28;20852;-62
2024/01/26 12:16:33;;;;;;;2.70;2.10;;;11.90;98.00;;;;;;5013220;28;20453;-62
2024/01/26 12:19:01;;;;;;;2.47;1.93;;;11.80;98.00;;;;;;5013291;28;20469;-62
2024/01/26 12:21:32;;;;;;;3.43;2.23;;;11.80;98.00;;;;;;5013362;28;20468;-62
2024/01/26 12:23:59;;;;;;;2.47;2.00;;;11.80;98.00;;;;;;5013027;28;20449;-62
2024/01/26 12:26:26;;;;;;;2.83;2.00;;;11.80;98.00;;;;;;4995381;28;20515;-63
2024/01/26 12:28:54;;;;;;;2.67;2.10;;;11.80;98.00;;;;;;5013116;28;20946;-62
2024/01/26 12:31:21;;;;;;;2.37;1.90;;;11.80;98.00;;;;;;5011455;28;20509;-62
2024/01/26 12:33:49;;;;;;;2.90;1.93;;;11.80;98.00;;;;;;5012807;28;20552;-62
2024/01/26 12:36:17;;;;;;;3.07;1.97;;;11.80;98.00;;;;;;5011372;28;20453;-62
2024/01/26 12:38:46;;;;;;;5.10;2.37;;;11.80;98.00;;;;;;5011737;28;20454;-63
2024/01/26 12:41:13;;;;;;;2.97;2.10;;;11.80;98.00;;;;;;5011043;28;20455;-62
2024/01/26 12:43:43;;;;;;;2.60;2.10;;;11.90;98.00;;;;;;5012866;28;20540;-62
2024/01/26 12:46:11;;;;;;;3.17;1.90;;;11.90;98.00;;;;;;5012558;28;20456;-62
2024/01/26 12:48:39;;;;;;;2.40;1.97;;;12.00;98.00;;;;;;5012804;28;20516;-62
2024/01/26 12:51:07;;;;;;;2.60;2.00;;;12.00;98.00;;;;;;5012471;28;20516;-62
2024/01/26 12:53:34;;;;;;;2.73;2.20;;;11.90;98.00;;;;;;5012665;28;20453;-64